PDT,Max TemperatureF,Mean TemperatureF,Min TemperatureF,Max Dew PointF,MeanDew PointF,Min DewpointF,Max Humidity, Mean Humidity, Min Humidity, Max Sea Level PressureIn, Mean Sea Level PressureIn, Min Sea Level PressureIn, Max VisibilityMiles, Mean VisibilityMiles, Min VisibilityMiles, Max Wind SpeedMPH, Mean Wind SpeedMPH, Max Gust SpeedMPH,PrecipitationIn, CloudCover, Events, WindDirDegrees
2013-9-1,96,86,76,68,66,62,60,51,41,29.91,29.88,29.83,10,10,10,10,3,16,0.00,0,,260
2013-9-2,97,85,73,67,65,64,79,58,36,29.90,29.85,29.79,10,10,6,10,2,16,0.00,0,,245
2013-9-3,99,87,75,66,64,61,74,53,31,29.89,29.84,29.80,10,10,10,10,3,22,0.00,0,,230
2013-9-4,102,89,75,65,61,55,64,45,26,29.89,29.85,29.81,10,10,10,12,3,16,0.00,0,,251
2013-9-5,103,89,74,63,60,53,68,46,23,29.87,29.84,29.80,10,10,9,10,3,14,0.00,0,,223
2013-9-6,101,87,73,64,58,49,68,43,18,29.85,29.81,29.76,10,10,8,10,3,15,0.00,0,,229
2013-9-7,100,87,74,64,60,48,69,44,18,29.85,29.81,29.77,10,10,8,12,3,14,0.00,0,,204
2013-9-8,90,80,69,63,60,54,78,56,34,29.84,29.80,29.73,10,9,7,10,3,,0.00,0,,252
2013-9-9,84,76,68,60,58,56,76,59,42,29.81,29.77,29.73,10,10,6,12,3,23,0.00,0,,212
2013-9-10,80,73,65,58,57,56,78,62,45,29.94,29.87,29.81,10,9,6,10,3,,0.00,2,,189
2013-9-11,80,72,63,59,58,57,78,62,45,29.99,29.95,29.90,10,9,5,12,2,16,0.00,3,,276
2013-9-12,90,76,62,61,59,56,87,61,34,29.92,29.87,29.80,10,9,5,10,2,23,0.00,0,,246
2013-9-13,86,75,63,62,60,57,87,65,43,29.82,29.74,29.65,10,10,9,9,2,18,0.00,0,,187
2013-9-14,87,76,65,63,61,56,87,66,45,29.71,29.67,29.62,10,10,8,9,2,14,0.00,0,,229
2013-9-15,94,80,65,64,61,56,93,65,37,29.76,29.72,29.68,10,8,2,13,3,17,0.00,1,,257
2013-9-16,95,80,65,62,59,52,81,53,24,29.81,29.77,29.71,10,10,8,10,3,23,0.00,0,,258
2013-9-17,79,72,64,63,61,59,93,74,54,29.82,29.78,29.73,10,8,4,10,3,23,0.00,4,,180
2013-9-18,78,72,65,61,58,56,84,66,47,29.81,29.77,29.74,10,10,9,10,5,24,0.00,3,,180
2013-9-19,80,72,63,61,60,57,87,70,52,29.83,29.79,29.75,10,9,6,10,3,15,0.00,4,,215
2013-9-20,73,70,67,61,60,58,76,72,68,29.88,29.85,29.81,10,10,9,12,3,24,0.00,8,,211
2013-9-21,77,72,66,59,57,54,73,60,46,29.90,29.84,29.80,10,10,10,12,3,16,0.00,5,,222
2013-9-22,79,71,62,59,55,44,84,62,39,29.84,29.81,29.77,10,10,10,13,4,20,0.00,2,,161
2013-9-23,97,78,58,58,48,37,78,46,14,29.88,29.83,29.78,10,10,10,9,1,21,0.00,0,,220
2013-9-24,87,74,61,61,51,38,73,47,21,29.91,29.87,29.82,10,10,10,13,3,16,0.00,0,,190
2013-9-25,77,70,63,60,56,50,84,67,50,29.84,29.76,29.70,10,10,9,13,6,18,0.00,3,,185
2013-9-26,78,71,63,56,51,41,73,52,31,29.87,29.77,29.72,10,10,10,15,5,22,0.00,4,,204
2013-9-27,88,72,56,51,40,26,75,43,11,29.98,29.92,29.87,10,10,10,13,3,18,0.00,0,,307
2013-9-28,93,74,54,43,36,23,59,34,8,30.03,29.98,29.93,10,10,10,10,2,16,0.00,0,,290
2013-9-29,89,72,55,48,40,31,61,38,14,30.05,30.00,29.95,10,10,10,12,3,15,0.00,0,,215
2013-9-30,84,72,59,61,52,41,84,54,24,29.98,29.92,29.84,10,10,2,10,3,15,0.00,2,,166